University, Washington
Current Conditions -  °F | °C
As of 10:53 PM on Friday 28 Nov 2014 (Local Time) from KBFI Reporting Station
Overcast Overcast  
Wind Chill: 39°   Ceiling: 2300
Heat Index: 42°   Visibility: 10mi
Dew Point: 37°   Wind: 5mph
Humidity: 82%   Direction: NA
Pressure: 29.53"   Gusts: NA
Location:  47.6619°N, 122.296°W
Report Text: KBFI 290653Z VRB04KT 10SM SCT009 SCT018 OVC023 06/03 A2953 RMK AO2 SLP998 T00560028
Loading
Personal Weather Stations






























Interactive Weather Map New forecast layout! Learn more

10-Day Weather Forecast

Advertisements
Track Severe Weather on mobile